sensor_id;sensor_type;location;lat;lon;timestamp;temperature;humidity
78520;SHT31;67818;51.986;5.648;2023-08-30T00:01:07;15.6;73.1
78520;SHT31;67818;51.986;5.648;2023-08-30T00:03:36;15.6;73.2
78520;SHT31;67818;51.986;5.648;2023-08-30T00:06:06;15.6;73.4
78520;SHT31;67818;51.986;5.648;2023-08-30T00:08:35;15.6;73.0
78520;SHT31;67818;51.986;5.648;2023-08-30T00:11:06;15.5;72.7
78520;SHT31;67818;51.986;5.648;2023-08-30T00:13:35;15.5;72.6
78520;SHT31;67818;51.986;5.648;2023-08-30T00:16:04;15.4;72.3
78520;SHT31;67818;51.986;5.648;2023-08-30T00:18:34;15.4;73.2
78520;SHT31;67818;51.986;5.648;2023-08-30T00:21:03;15.3;73.3
78520;SHT31;67818;51.986;5.648;2023-08-30T00:23:33;15.3;72.9
78520;SHT31;67818;51.986;5.648;2023-08-30T00:26:02;15.2;72.6
78520;SHT31;67818;51.986;5.648;2023-08-30T00:28:30;15.2;73.1
78520;SHT31;67818;51.986;5.648;2023-08-30T00:30:59;15.1;72.7
78520;SHT31;67818;51.986;5.648;2023-08-30T00:33:28;15.1;73.2
78520;SHT31;67818;51.986;5.648;2023-08-30T00:36:02;15.0;73.3
78520;SHT31;67818;51.986;5.648;2023-08-30T00:38:33;14.9;73.7
78520;SHT31;67818;51.986;5.648;2023-08-30T00:41:02;14.9;74.1
78520;SHT31;67818;51.986;5.648;2023-08-30T00:43:31;14.8;73.9
78520;SHT31;67818;51.986;5.648;2023-08-30T00:46:00;14.8;74.0
78520;SHT31;67818;51.986;5.648;2023-08-30T00:48:28;14.7;74.0
78520;SHT31;67818;51.986;5.648;2023-08-30T00:50:58;14.7;74.3
78520;SHT31;67818;51.986;5.648;2023-08-30T00:53:28;14.7;74.4
78520;SHT31;67818;51.986;5.648;2023-08-30T00:55:58;14.7;74.6
78520;SHT31;67818;51.986;5.648;2023-08-30T00:58:28;14.7;74.4
78520;SHT31;67818;51.986;5.648;2023-08-30T01:00:58;14.7;74.7
78520;SHT31;67818;51.986;5.648;2023-08-30T01:03:28;14.8;74.8
78520;SHT31;67818;51.986;5.648;2023-08-30T01:05:57;14.8;73.9
78520;SHT31;67818;51.986;5.648;2023-08-30T01:08:26;14.8;73.9
78520;SHT31;67818;51.986;5.648;2023-08-30T01:11:07;14.8;73.8
78520;SHT31;67818;51.986;5.648;2023-08-30T01:13:45;14.9;73.8
78520;SHT31;67818;51.986;5.648;2023-08-30T01:16:19;15.0;73.7
78520;SHT31;67818;51.986;5.648;2023-08-30T01:18:56;15.1;73.7
78520;SHT31;67818;51.986;5.648;2023-08-30T01:21:42;15.2;73.3
78520;SHT31;67818;51.986;5.648;2023-08-30T01:24:28;15.3;73.0
78520;SHT31;67818;51.986;5.648;2023-08-30T01:27:25;15.4;72.3
78520;SHT31;67818;51.986;5.648;2023-08-30T01:30:02;15.6;71.4
78520;SHT31;67818;51.986;5.648;2023-08-30T01:32:35;15.6;71.7
78520;SHT31;67818;51.986;5.648;2023-08-30T01:35:07;15.7;71.4
78520;SHT31;67818;51.986;5.648;2023-08-30T01:37:38;15.7;71.7
78520;SHT31;67818;51.986;5.648;2023-08-30T01:40:11;15.7;71.4
78520;SHT31;67818;51.986;5.648;2023-08-30T01:42:42;15.7;71.2
78520;SHT31;67818;51.986;5.648;2023-08-30T01:45:15;15.6;71.1
78520;SHT31;67818;51.986;5.648;2023-08-30T01:47:46;15.6;71.4
78520;SHT31;67818;51.986;5.648;2023-08-30T01:50:15;15.6;71.9
78520;SHT31;67818;51.986;5.648;2023-08-30T01:52:47;15.6;71.2
78520;SHT31;67818;51.986;5.648;2023-08-30T01:55:22;15.6;71.3
78520;SHT31;67818;51.986;5.648;2023-08-30T01:57:53;15.5;71.5
78520;SHT31;67818;51.986;5.648;2023-08-30T02:00:22;15.5;72.2
78520;SHT31;67818;51.986;5.648;2023-08-30T02:02:53;15.5;71.7
78520;SHT31;67818;51.986;5.648;2023-08-30T02:05:23;15.5;71.5
78520;SHT31;67818;51.986;5.648;2023-08-30T02:07:57;15.5;72.0
78520;SHT31;67818;51.986;5.648;2023-08-30T02:10:30;15.5;72.1
78520;SHT31;67818;51.986;5.648;2023-08-30T02:13:03;15.5;72.2
78520;SHT31;67818;51.986;5.648;2023-08-30T02:15:34;15.5;72.5
78520;SHT31;67818;51.986;5.648;2023-08-30T02:18:05;15.5;71.9
78520;SHT31;67818;51.986;5.648;2023-08-30T02:20:34;15.5;71.3
78520;SHT31;67818;51.986;5.648;2023-08-30T02:23:03;15.5;71.5
78520;SHT31;67818;51.986;5.648;2023-08-30T02:25:32;15.5;70.9
78520;SHT31;67818;51.986;5.648;2023-08-30T02:28:01;15.5;70.4
78520;SHT31;67818;51.986;5.648;2023-08-30T02:30:29;15.5;71.0
78520;SHT31;67818;51.986;5.648;2023-08-30T02:32:58;15.5;70.9
78520;SHT31;67818;51.986;5.648;2023-08-30T02:35:26;15.5;71.0
78520;SHT31;67818;51.986;5.648;2023-08-30T02:37:55;15.5;71.3
78520;SHT31;67818;51.986;5.648;2023-08-30T02:40:24;15.5;70.5
78520;SHT31;67818;51.986;5.648;2023-08-30T02:42:54;15.5;70.9
78520;SHT31;67818;51.986;5.648;2023-08-30T02:45:23;15.5;71.3
78520;SHT31;67818;51.986;5.648;2023-08-30T02:47:55;15.5;70.7
78520;SHT31;67818;51.986;5.648;2023-08-30T02:50:24;15.5;70.8
78520;SHT31;67818;51.986;5.648;2023-08-30T02:52:55;15.5;71.1
78520;SHT31;67818;51.986;5.648;2023-08-30T02:55:23;15.5;71.0
78520;SHT31;67818;51.986;5.648;2023-08-30T02:57:52;15.5;71.5
78520;SHT31;67818;51.986;5.648;2023-08-30T03:00:21;15.5;71.9
78520;SHT31;67818;51.986;5.648;2023-08-30T03:02:49;15.5;70.7
78520;SHT31;67818;51.986;5.648;2023-08-30T03:05:19;15.5;71.7
78520;SHT31;67818;51.986;5.648;2023-08-30T03:07:47;15.5;70.6
78520;SHT31;67818;51.986;5.648;2023-08-30T03:10:18;15.5;70.6
78520;SHT31;67818;51.986;5.648;2023-08-30T03:12:47;15.6;71.5
78520;SHT31;67818;51.986;5.648;2023-08-30T03:15:15;15.6;70.8
78520;SHT31;67818;51.986;5.648;2023-08-30T03:17:44;15.5;70.5
78520;SHT31;67818;51.986;5.648;2023-08-30T03:20:13;15.5;70.6
78520;SHT31;67818;51.986;5.648;2023-08-30T03:22:42;15.5;70.1
78520;SHT31;67818;51.986;5.648;2023-08-30T03:25:13;15.5;70.7
78520;SHT31;67818;51.986;5.648;2023-08-30T03:27:43;15.5;69.7
78520;SHT31;67818;51.986;5.648;2023-08-30T03:30:14;15.5;70.3
78520;SHT31;67818;51.986;5.648;2023-08-30T03:32:44;15.5;70.7
78520;SHT31;67818;51.986;5.648;2023-08-30T03:35:13;15.4;70.3
78520;SHT31;67818;51.986;5.648;2023-08-30T03:37:46;15.4;69.4
78520;SHT31;67818;51.986;5.648;2023-08-30T03:40:14;15.4;69.2
78520;SHT31;67818;51.986;5.648;2023-08-30T03:42:43;15.4;69.4
78520;SHT31;67818;51.986;5.648;2023-08-30T03:45:12;15.4;69.5
78520;SHT31;67818;51.986;5.648;2023-08-30T03:47:40;15.4;69.4
78520;SHT31;67818;51.986;5.648;2023-08-30T03:50:09;15.3;69.5
78520;SHT31;67818;51.986;5.648;2023-08-30T03:52:38;15.3;69.3
78520;SHT31;67818;51.986;5.648;2023-08-30T03:55:07;15.3;69.3
78520;SHT31;67818;51.986;5.648;2023-08-30T03:57:36;15.2;69.7
78520;SHT31;67818;51.986;5.648;2023-08-30T04:00:06;15.1;70.0
78520;SHT31;67818;51.986;5.648;2023-08-30T04:02:35;15.1;69.8
78520;SHT31;67818;51.986;5.648;2023-08-30T04:05:04;15.0;69.8
78520;SHT31;67818;51.986;5.648;2023-08-30T04:07:35;14.9;70.3
78520;SHT31;67818;51.986;5.648;2023-08-30T04:10:08;14.9;70.6
78520;SHT31;67818;51.986;5.648;2023-08-30T04:12:39;14.8;70.2
78520;SHT31;67818;51.986;5.648;2023-08-30T04:15:08;14.7;70.6
78520;SHT31;67818;51.986;5.648;2023-08-30T04:17:39;14.6;70.5
78520;SHT31;67818;51.986;5.648;2023-08-30T04:20:09;14.6;71.1
78520;SHT31;67818;51.986;5.648;2023-08-30T04:22:39;14.5;70.7
78520;SHT31;67818;51.986;5.648;2023-08-30T04:25:08;14.4;71.2
78520;SHT31;67818;51.986;5.648;2023-08-30T04:27:37;14.4;71.4
78520;SHT31;67818;51.986;5.648;2023-08-30T04:30:10;14.3;71.7
78520;SHT31;67818;51.986;5.648;2023-08-30T04:32:39;14.3;71.9
78520;SHT31;67818;51.986;5.648;2023-08-30T04:35:08;14.2;71.7
78520;SHT31;67818;51.986;5.648;2023-08-30T04:37:38;14.2;71.9
78520;SHT31;67818;51.986;5.648;2023-08-30T04:40:08;14.2;72.3
78520;SHT31;67818;51.986;5.648;2023-08-30T04:42:38;14.1;72.7
78520;SHT31;67818;51.986;5.648;2023-08-30T04:45:09;14.1;72.9
78520;SHT31;67818;51.986;5.648;2023-08-30T04:47:38;14.1;73.1
78520;SHT31;67818;51.986;5.648;2023-08-30T04:50:16;14.2;72.6
78520;SHT31;67818;51.986;5.648;2023-08-30T04:52:45;14.3;72.4
78520;SHT31;67818;51.986;5.648;2023-08-30T04:55:15;14.3;72.1
78520;SHT31;67818;51.986;5.648;2023-08-30T04:57:44;14.3;71.8
78520;SHT31;67818;51.986;5.648;2023-08-30T05:00:18;14.3;71.8
78520;SHT31;67818;51.986;5.648;2023-08-30T05:02:47;14.3;71.9
78520;SHT31;67818;51.986;5.648;2023-08-30T05:05:16;14.3;72.2
78520;SHT31;67818;51.986;5.648;2023-08-30T05:07:45;14.2;72.9
78520;SHT31;67818;51.986;5.648;2023-08-30T05:10:13;14.2;72.3
78520;SHT31;67818;51.986;5.648;2023-08-30T05:12:42;14.2;73.3
78520;SHT31;67818;51.986;5.648;2023-08-30T05:15:15;14.1;73.4
78520;SHT31;67818;51.986;5.648;2023-08-30T05:17:44;14.1;73.8
78520;SHT31;67818;51.986;5.648;2023-08-30T05:20:13;14.1;73.8
78520;SHT31;67818;51.986;5.648;2023-08-30T05:22:44;14.1;74.3
78520;SHT31;67818;51.986;5.648;2023-08-30T05:25:12;14.1;73.9
78520;SHT31;67818;51.986;5.648;2023-08-30T05:27:41;14.1;74.1
78520;SHT31;67818;51.986;5.648;2023-08-30T05:30:10;14.1;74.7
78520;SHT31;67818;51.986;5.648;2023-08-30T05:32:41;14.1;74.5
78520;SHT31;67818;51.986;5.648;2023-08-30T05:35:10;14.1;74.4
78520;SHT31;67818;51.986;5.648;2023-08-30T05:37:39;14.1;74.7
78520;SHT31;67818;51.986;5.648;2023-08-30T05:40:11;14.2;74.7
78520;SHT31;67818;51.986;5.648;2023-08-30T05:42:43;14.3;74.8
78520;SHT31;67818;51.986;5.648;2023-08-30T05:45:12;14.3;74.8
78520;SHT31;67818;51.986;5.648;2023-08-30T05:47:41;14.4;74.7
78520;SHT31;67818;51.986;5.648;2023-08-30T05:50:10;14.6;74.5
78520;SHT31;67818;51.986;5.648;2023-08-30T05:52:40;14.7;74.0
78520;SHT31;67818;51.986;5.648;2023-08-30T05:55:11;14.9;73.3
78520;SHT31;67818;51.986;5.648;2023-08-30T05:57:42;15.1;72.7
78520;SHT31;67818;51.986;5.648;2023-08-30T06:00:11;15.2;72.4
78520;SHT31;67818;51.986;5.648;2023-08-30T06:02:41;15.3;72.4
78520;SHT31;67818;51.986;5.648;2023-08-30T06:05:11;15.3;71.8
78520;SHT31;67818;51.986;5.648;2023-08-30T06:07:40;15.4;72.1
78520;SHT31;67818;51.986;5.648;2023-08-30T06:10:09;15.5;71.7
78520;SHT31;67818;51.986;5.648;2023-08-30T06:12:38;15.5;71.7
78520;SHT31;67818;51.986;5.648;2023-08-30T06:15:07;15.6;72.4
78520;SHT31;67818;51.986;5.648;2023-08-30T06:17:36;15.6;72.5
78520;SHT31;67818;51.986;5.648;2023-08-30T06:20:06;15.6;72.4
78520;SHT31;67818;51.986;5.648;2023-08-30T06:22:35;15.6;72.0
78520;SHT31;67818;51.986;5.648;2023-08-30T06:25:05;15.7;71.6
78520;SHT31;67818;51.986;5.648;2023-08-30T06:27:34;15.7;71.7
78520;SHT31;67818;51.986;5.648;2023-08-30T06:30:03;15.7;71.7
78520;SHT31;67818;51.986;5.648;2023-08-30T06:32:31;15.7;71.8
78520;SHT31;67818;51.986;5.648;2023-08-30T06:35:04;15.8;72.3
78520;SHT31;67818;51.986;5.648;2023-08-30T06:37:33;15.8;71.6
78520;SHT31;67818;51.986;5.648;2023-08-30T06:40:02;15.8;72.2
78520;SHT31;67818;51.986;5.648;2023-08-30T06:42:31;15.8;71.8
78520;SHT31;67818;51.986;5.648;2023-08-30T06:45:01;15.8;72.2
78520;SHT31;67818;51.986;5.648;2023-08-30T06:47:31;15.9;72.7
78520;SHT31;67818;51.986;5.648;2023-08-30T06:50:00;15.9;73.2
78520;SHT31;67818;51.986;5.648;2023-08-30T06:52:32;16.0;73.5
78520;SHT31;67818;51.986;5.648;2023-08-30T06:55:00;16.0;74.0
78520;SHT31;67818;51.986;5.648;2023-08-30T06:57:29;16.1;73.5
78520;SHT31;67818;51.986;5.648;2023-08-30T06:59:57;16.2;74.0
78520;SHT31;67818;51.986;5.648;2023-08-30T07:02:31;16.3;73.8
78520;SHT31;67818;51.986;5.648;2023-08-30T07:05:00;16.3;73.9
78520;SHT31;67818;51.986;5.648;2023-08-30T07:07:31;16.3;74.2
78520;SHT31;67818;51.986;5.648;2023-08-30T07:10:02;16.3;74.1
78520;SHT31;67818;51.986;5.648;2023-08-30T07:12:31;16.2;74.6
78520;SHT31;67818;51.986;5.648;2023-08-30T07:15:00;16.1;75.3
78520;SHT31;67818;51.986;5.648;2023-08-30T07:17:29;16.0;75.9
78520;SHT31;67818;51.986;5.648;2023-08-30T07:19:58;15.9;76.7
78520;SHT31;67818;51.986;5.648;2023-08-30T07:22:27;15.8;77.1
78520;SHT31;67818;51.986;5.648;2023-08-30T07:24:56;15.7;77.7
78520;SHT31;67818;51.986;5.648;2023-08-30T07:27:26;15.6;78.5
78520;SHT31;67818;51.986;5.648;2023-08-30T07:29:57;15.5;78.7
78520;SHT31;67818;51.986;5.648;2023-08-30T07:32:26;15.5;79.3
78520;SHT31;67818;51.986;5.648;2023-08-30T07:34:54;15.4;79.8
78520;SHT31;67818;51.986;5.648;2023-08-30T07:37:23;15.3;80.4
78520;SHT31;67818;51.986;5.648;2023-08-30T07:39:53;15.2;81.1
78520;SHT31;67818;51.986;5.648;2023-08-30T07:42:22;15.2;81.8
78520;SHT31;67818;51.986;5.648;2023-08-30T07:44:51;15.2;82.1
78520;SHT31;67818;51.986;5.648;2023-08-30T07:47:20;15.1;82.1
78520;SHT31;67818;51.986;5.648;2023-08-30T07:49:48;15.1;82.2
78520;SHT31;67818;51.986;5.648;2023-08-30T07:52:17;15.1;82.3
78520;SHT31;67818;51.986;5.648;2023-08-30T07:54:45;15.1;82.4
78520;SHT31;67818;51.986;5.648;2023-08-30T07:57:14;15.1;82.6
78520;SHT31;67818;51.986;5.648;2023-08-30T07:59:42;15.0;82.7
78520;SHT31;67818;51.986;5.648;2023-08-30T08:02:11;15.0;82.9
78520;SHT31;67818;51.986;5.648;2023-08-30T08:04:40;15.0;83.1
78520;SHT31;67818;51.986;5.648;2023-08-30T08:07:09;15.0;82.8
78520;SHT31;67818;51.986;5.648;2023-08-30T08:09:38;14.9;83.1
78520;SHT31;67818;51.986;5.648;2023-08-30T08:12:09;14.9;83.6
78520;SHT31;67818;51.986;5.648;2023-08-30T08:14:38;14.9;84.2
78520;SHT31;67818;51.986;5.648;2023-08-30T08:17:08;14.9;84.4
78520;SHT31;67818;51.986;5.648;2023-08-30T08:19:38;14.9;84.2
78520;SHT31;67818;51.986;5.648;2023-08-30T08:22:11;14.9;84.7
78520;SHT31;67818;51.986;5.648;2023-08-30T08:24:40;14.9;85.1
78520;SHT31;67818;51.986;5.648;2023-08-30T08:27:10;14.9;85.4
78520;SHT31;67818;51.986;5.648;2023-08-30T08:29:39;15.0;85.1
78520;SHT31;67818;51.986;5.648;2023-08-30T08:32:07;15.0;84.9
78520;SHT31;67818;51.986;5.648;2023-08-30T08:34:37;15.1;85.2
78520;SHT31;67818;51.986;5.648;2023-08-30T08:37:06;15.1;84.9
78520;SHT31;67818;51.986;5.648;2023-08-30T08:39:35;15.2;84.8
78520;SHT31;67818;51.986;5.648;2023-08-30T08:42:05;15.3;84.3
78520;SHT31;67818;51.986;5.648;2023-08-30T08:44:37;15.3;84.1
78520;SHT31;67818;51.986;5.648;2023-08-30T08:47:07;15.3;84.2
78520;SHT31;67818;51.986;5.648;2023-08-30T08:49:36;15.4;84.1
78520;SHT31;67818;51.986;5.648;2023-08-30T08:52:06;15.4;84.2
78520;SHT31;67818;51.986;5.648;2023-08-30T08:54:39;15.4;83.8
78520;SHT31;67818;51.986;5.648;2023-08-30T08:57:09;15.4;83.9
78520;SHT31;67818;51.986;5.648;2023-08-30T08:59:38;15.4;83.5
78520;SHT31;67818;51.986;5.648;2023-08-30T09:02:08;15.5;83.6
78520;SHT31;67818;51.986;5.648;2023-08-30T09:04:41;15.5;83.4
78520;SHT31;67818;51.986;5.648;2023-08-30T09:07:10;15.5;83.3
78520;SHT31;67818;51.986;5.648;2023-08-30T09:09:40;15.5;83.6
78520;SHT31;67818;51.986;5.648;2023-08-30T09:12:09;15.5;83.8
78520;SHT31;67818;51.986;5.648;2023-08-30T09:14:38;15.5;83.9
78520;SHT31;67818;51.986;5.648;2023-08-30T09:17:06;15.5;84.1
78520;SHT31;67818;51.986;5.648;2023-08-30T09:19:35;15.5;84.2
78520;SHT31;67818;51.986;5.648;2023-08-30T09:22:03;15.5;84.0
78520;SHT31;67818;51.986;5.648;2023-08-30T09:24:40;15.5;84.0
78520;SHT31;67818;51.986;5.648;2023-08-30T09:27:09;15.5;84.2
78520;SHT31;67818;51.986;5.648;2023-08-30T09:29:38;15.5;84.4
78520;SHT31;67818;51.986;5.648;2023-08-30T09:32:12;15.5;84.5
78520;SHT31;67818;51.986;5.648;2023-08-30T09:34:48;15.5;84.8
78520;SHT31;67818;51.986;5.648;2023-08-30T09:37:23;15.6;85.2
78520;SHT31;67818;51.986;5.648;2023-08-30T09:39:53;15.6;85.8
78520;SHT31;67818;51.986;5.648;2023-08-30T09:42:22;15.6;86.2
78520;SHT31;67818;51.986;5.648;2023-08-30T09:44:53;15.7;86.2
78520;SHT31;67818;51.986;5.648;2023-08-30T09:47:24;15.8;86.0
78520;SHT31;67818;51.986;5.648;2023-08-30T09:49:55;15.8;85.9
78520;SHT31;67818;51.986;5.648;2023-08-30T09:52:26;15.9;86.1
78520;SHT31;67818;51.986;5.648;2023-08-30T09:54:59;16.0;86.1
78520;SHT31;67818;51.986;5.648;2023-08-30T09:57:31;16.1;86.4
78520;SHT31;67818;51.986;5.648;2023-08-30T10:00:02;16.2;87.3
78520;SHT31;67818;51.986;5.648;2023-08-30T10:02:33;16.4;86.8
78520;SHT31;67818;51.986;5.648;2023-08-30T10:05:05;16.5;85.7
78520;SHT31;67818;51.986;5.648;2023-08-30T10:07:35;16.7;85.7
78520;SHT31;67818;51.986;5.648;2023-08-30T10:10:06;16.8;84.9
78520;SHT31;67818;51.986;5.648;2023-08-30T10:12:36;16.9;84.8
78520;SHT31;67818;51.986;5.648;2023-08-30T10:15:06;17.0;86.1
78520;SHT31;67818;51.986;5.648;2023-08-30T10:17:38;17.2;86.0
78520;SHT31;67818;51.986;5.648;2023-08-30T10:20:10;17.4;85.3
78520;SHT31;67818;51.986;5.648;2023-08-30T10:22:41;17.5;83.9
78520;SHT31;67818;51.986;5.648;2023-08-30T10:25:16;17.6;82.9
78520;SHT31;67818;51.986;5.648;2023-08-30T10:27:48;17.7;83.2
78520;SHT31;67818;51.986;5.648;2023-08-30T10:30:20;17.8;83.1
78520;SHT31;67818;51.986;5.648;2023-08-30T10:32:50;18.0;83.2
78520;SHT31;67818;51.986;5.648;2023-08-30T10:35:19;18.1;82.3
78520;SHT31;67818;51.986;5.648;2023-08-30T10:37:56;18.1;81.8
78520;SHT31;67818;51.986;5.648;2023-08-30T10:40:25;18.2;80.9
78520;SHT31;67818;51.986;5.648;2023-08-30T10:43:04;18.3;80.1
78520;SHT31;67818;51.986;5.648;2023-08-30T10:45:33;18.4;79.8
78520;SHT31;67818;51.986;5.648;2023-08-30T10:48:01;18.5;80.8
78520;SHT31;67818;51.986;5.648;2023-08-30T10:50:34;18.7;81.9
78520;SHT31;67818;51.986;5.648;2023-08-30T10:53:04;18.9;80.9
78520;SHT31;67818;51.986;5.648;2023-08-30T10:56:04;19.1;78.8
78520;SHT31;67818;51.986;5.648;2023-08-30T10:58:44;19.4;76.8
78520;SHT31;67818;51.986;5.648;2023-08-30T11:01:15;19.5;76.5
78520;SHT31;67818;51.986;5.648;2023-08-30T11:03:48;19.6;75.0
78520;SHT31;67818;51.986;5.648;2023-08-30T11:06:21;19.7;70.1
78520;SHT31;67818;51.986;5.648;2023-08-30T11:08:50;19.7;69.1
78520;SHT31;67818;51.986;5.648;2023-08-30T11:11:19;19.6;71.5
78520;SHT31;67818;51.986;5.648;2023-08-30T11:13:47;19.5;69.5
78520;SHT31;67818;51.986;5.648;2023-08-30T11:16:22;19.4;70.9
78520;SHT31;67818;51.986;5.648;2023-08-30T11:18:53;19.4;69.5
78520;SHT31;67818;51.986;5.648;2023-08-30T11:21:24;19.3;71.6
78520;SHT31;67818;51.986;5.648;2023-08-30T11:23:55;19.3;72.0
78520;SHT31;67818;51.986;5.648;2023-08-30T11:26:25;19.3;73.1
78520;SHT31;67818;51.986;5.648;2023-08-30T11:28:53;19.4;73.4
78520;SHT31;67818;51.986;5.648;2023-08-30T11:31:25;19.4;70.6
78520;SHT31;67818;51.986;5.648;2023-08-30T11:33:57;19.5;72.4
78520;SHT31;67818;51.986;5.648;2023-08-30T11:36:28;19.5;71.7
78520;SHT31;67818;51.986;5.648;2023-08-30T11:38:57;19.6;72.5
78520;SHT31;67818;51.986;5.648;2023-08-30T11:41:27;19.6;68.4
78520;SHT31;67818;51.986;5.648;2023-08-30T11:43:58;19.7;67.5
78520;SHT31;67818;51.986;5.648;2023-08-30T11:46:27;19.7;67.5
78520;SHT31;67818;51.986;5.648;2023-08-30T11:48:56;19.8;69.2
78520;SHT31;67818;51.986;5.648;2023-08-30T11:51:27;19.8;69.4
78520;SHT31;67818;51.986;5.648;2023-08-30T11:53:57;19.9;69.8
78520;SHT31;67818;51.986;5.648;2023-08-30T11:56:29;20.0;66.2
78520;SHT31;67818;51.986;5.648;2023-08-30T11:58:58;20.0;63.4
78520;SHT31;67818;51.986;5.648;2023-08-30T12:01:32;20.0;63.1
78520;SHT31;67818;51.986;5.648;2023-08-30T12:04:11;19.9;62.9
78520;SHT31;67818;51.986;5.648;2023-08-30T12:06:40;19.8;63.6
78520;SHT31;67818;51.986;5.648;2023-08-30T12:09:13;19.6;65.5
78520;SHT31;67818;51.986;5.648;2023-08-30T12:11:46;19.5;65.9
78520;SHT31;67818;51.986;5.648;2023-08-30T12:14:15;19.5;67.1
78520;SHT31;67818;51.986;5.648;2023-08-30T12:16:44;19.5;67.8
78520;SHT31;67818;51.986;5.648;2023-08-30T12:19:14;19.5;66.8
78520;SHT31;67818;51.986;5.648;2023-08-30T12:21:47;19.6;64.9
78520;SHT31;67818;51.986;5.648;2023-08-30T12:24:16;19.8;65.9
78520;SHT31;67818;51.986;5.648;2023-08-30T12:26:46;19.9;65.9
78520;SHT31;67818;51.986;5.648;2023-08-30T12:29:18;19.9;67.0
78520;SHT31;67818;51.986;5.648;2023-08-30T12:31:49;20.0;66.9
78520;SHT31;67818;51.986;5.648;2023-08-30T12:34:17;20.1;66.4
78520;SHT31;67818;51.986;5.648;2023-08-30T12:36:46;20.1;65.5
78520;SHT31;67818;51.986;5.648;2023-08-30T12:39:14;20.1;64.6
78520;SHT31;67818;51.986;5.648;2023-08-30T12:41:43;20.1;64.3
78520;SHT31;67818;51.986;5.648;2023-08-30T12:44:13;20.1;67.0
78520;SHT31;67818;51.986;5.648;2023-08-30T12:46:42;20.1;68.2
78520;SHT31;67818;51.986;5.648;2023-08-30T12:49:10;20.2;67.6
78520;SHT31;67818;51.986;5.648;2023-08-30T12:51:39;20.4;65.3
78520;SHT31;67818;51.986;5.648;2023-08-30T12:54:08;20.6;64.0
78520;SHT31;67818;51.986;5.648;2023-08-30T12:56:38;20.7;64.1
78520;SHT31;67818;51.986;5.648;2023-08-30T12:59:09;20.8;65.4
78520;SHT31;67818;51.986;5.648;2023-08-30T13:01:38;21.0;66.3
78520;SHT31;67818;51.986;5.648;2023-08-30T13:04:06;21.2;66.4
78520;SHT31;67818;51.986;5.648;2023-08-30T13:06:35;21.5;62.7
78520;SHT31;67818;51.986;5.648;2023-08-30T13:09:03;21.8;60.9
78520;SHT31;67818;51.986;5.648;2023-08-30T13:11:32;22.0;62.0
78520;SHT31;67818;51.986;5.648;2023-08-30T13:14:01;22.1;58.2
78520;SHT31;67818;51.986;5.648;2023-08-30T13:16:29;22.2;57.5
78520;SHT31;67818;51.986;5.648;2023-08-30T13:19:01;22.2;59.7
78520;SHT31;67818;51.986;5.648;2023-08-30T13:21:29;22.3;57.2
78520;SHT31;67818;51.986;5.648;2023-08-30T13:23:58;22.3;58.8
78520;SHT31;67818;51.986;5.648;2023-08-30T13:26:27;22.3;54.0
78520;SHT31;67818;51.986;5.648;2023-08-30T13:28:57;22.2;55.8
78520;SHT31;67818;51.986;5.648;2023-08-30T13:31:28;22.1;55.1
78520;SHT31;67818;51.986;5.648;2023-08-30T13:33:58;22.0;59.5
78520;SHT31;67818;51.986;5.648;2023-08-30T13:36:27;21.9;54.5
78520;SHT31;67818;51.986;5.648;2023-08-30T13:38:55;21.9;53.7
78520;SHT31;67818;51.986;5.648;2023-08-30T13:41:24;21.9;56.3
78520;SHT31;67818;51.986;5.648;2023-08-30T13:43:53;22.0;54.8
78520;SHT31;67818;51.986;5.648;2023-08-30T13:46:21;22.1;57.2
78520;SHT31;67818;51.986;5.648;2023-08-30T13:48:50;22.3;52.2
78520;SHT31;67818;51.986;5.648;2023-08-30T13:51:23;22.3;51.0
78520;SHT31;67818;51.986;5.648;2023-08-30T13:53:53;22.3;51.5
78520;SHT31;67818;51.986;5.648;2023-08-30T13:56:23;22.2;53.6
78520;SHT31;67818;51.986;5.648;2023-08-30T13:58:52;22.0;52.0
78520;SHT31;67818;51.986;5.648;2023-08-30T14:01:20;21.9;52.8
78520;SHT31;67818;51.986;5.648;2023-08-30T14:03:50;21.7;55.0
78520;SHT31;67818;51.986;5.648;2023-08-30T14:06:19;21.5;53.7
78520;SHT31;67818;51.986;5.648;2023-08-30T14:08:48;21.4;54.4
78520;SHT31;67818;51.986;5.648;2023-08-30T14:11:17;21.3;56.7
78520;SHT31;67818;51.986;5.648;2023-08-30T14:13:46;21.2;55.1
78520;SHT31;67818;51.986;5.648;2023-08-30T14:16:16;21.2;56.6
78520;SHT31;67818;51.986;5.648;2023-08-30T14:18:50;21.2;57.1
78520;SHT31;67818;51.986;5.648;2023-08-30T14:21:18;21.3;56.6
78520;SHT31;67818;51.986;5.648;2023-08-30T14:23:47;21.5;56.8
78520;SHT31;67818;51.986;5.648;2023-08-30T14:26:18;21.7;56.0
78520;SHT31;67818;51.986;5.648;2023-08-30T14:28:46;21.9;54.3
78520;SHT31;67818;51.986;5.648;2023-08-30T14:31:15;22.0;54.0
78520;SHT31;67818;51.986;5.648;2023-08-30T14:33:44;22.1;53.2
78520;SHT31;67818;51.986;5.648;2023-08-30T14:36:14;22.1;51.5
78520;SHT31;67818;51.986;5.648;2023-08-30T14:38:43;22.0;52.3
78520;SHT31;67818;51.986;5.648;2023-08-30T14:41:12;21.9;52.9
78520;SHT31;67818;51.986;5.648;2023-08-30T14:43:42;21.8;55.8
78520;SHT31;67818;51.986;5.648;2023-08-30T14:46:11;21.6;55.5
78520;SHT31;67818;51.986;5.648;2023-08-30T14:48:42;21.5;53.0
78520;SHT31;67818;51.986;5.648;2023-08-30T14:51:11;21.4;52.9
78520;SHT31;67818;51.986;5.648;2023-08-30T14:53:40;21.3;51.5
78520;SHT31;67818;51.986;5.648;2023-08-30T14:56:09;21.1;49.9
78520;SHT31;67818;51.986;5.648;2023-08-30T14:58:38;20.9;50.6
78520;SHT31;67818;51.986;5.648;2023-08-30T15:01:07;20.7;52.8
78520;SHT31;67818;51.986;5.648;2023-08-30T15:03:35;20.4;55.2
78520;SHT31;67818;51.986;5.648;2023-08-30T15:06:04;20.2;56.5
78520;SHT31;67818;51.986;5.648;2023-08-30T15:08:32;20.0;56.3
78520;SHT31;67818;51.986;5.648;2023-08-30T15:11:01;19.9;58.3
78520;SHT31;67818;51.986;5.648;2023-08-30T15:13:30;19.8;56.8
78520;SHT31;67818;51.986;5.648;2023-08-30T15:16:01;19.7;58.3
78520;SHT31;67818;51.986;5.648;2023-08-30T15:18:30;19.6;59.9
78520;SHT31;67818;51.986;5.648;2023-08-30T15:20:59;19.6;60.4
78520;SHT31;67818;51.986;5.648;2023-08-30T15:23:28;19.5;60.0
78520;SHT31;67818;51.986;5.648;2023-08-30T15:25:58;19.5;61.7
78520;SHT31;67818;51.986;5.648;2023-08-30T15:28:29;19.4;60.0
78520;SHT31;67818;51.986;5.648;2023-08-30T15:30:58;19.3;60.8
78520;SHT31;67818;51.986;5.648;2023-08-30T15:33:26;19.2;61.3
78520;SHT31;67818;51.986;5.648;2023-08-30T15:35:58;19.0;61.5
78520;SHT31;67818;51.986;5.648;2023-08-30T15:38:29;19.0;63.5
78520;SHT31;67818;51.986;5.648;2023-08-30T15:41:08;18.9;65.8
78520;SHT31;67818;51.986;5.648;2023-08-30T15:43:38;18.9;68.9
78520;SHT31;67818;51.986;5.648;2023-08-30T15:46:10;18.8;70.1
78520;SHT31;67818;51.986;5.648;2023-08-30T15:48:40;18.6;70.6
78520;SHT31;67818;51.986;5.648;2023-08-30T15:51:09;18.5;72.3
78520;SHT31;67818;51.986;5.648;2023-08-30T15:53:38;18.4;70.7
78520;SHT31;67818;51.986;5.648;2023-08-30T15:56:07;18.3;72.4
78520;SHT31;67818;51.986;5.648;2023-08-30T15:58:35;18.3;72.9
78520;SHT31;67818;51.986;5.648;2023-08-30T16:01:05;18.2;74.3
78520;SHT31;67818;51.986;5.648;2023-08-30T16:03:34;18.1;73.9
78520;SHT31;67818;51.986;5.648;2023-08-30T16:06:04;18.0;71.8
78520;SHT31;67818;51.986;5.648;2023-08-30T16:08:32;17.9;72.2
78520;SHT31;67818;51.986;5.648;2023-08-30T16:11:01;17.8;71.4
78520;SHT31;67818;51.986;5.648;2023-08-30T16:13:30;17.7;71.7
78520;SHT31;67818;51.986;5.648;2023-08-30T16:16:00;17.6;73.0
78520;SHT31;67818;51.986;5.648;2023-08-30T16:18:29;17.5;74.4
78520;SHT31;67818;51.986;5.648;2023-08-30T16:20:58;17.5;73.1